createdAt,value
2022-09-03T00:00:53.049Z,11.19
2022-09-03T00:01:53.142Z,11.16
2022-09-03T00:02:53.055Z,11.14
2022-09-03T00:03:53.100Z,11.12
2022-09-03T00:04:53.011Z,11.12
2022-09-03T00:05:54.039Z,11.12
2022-09-03T00:06:52.959Z,11.12
2022-09-03T00:07:53.086Z,11.12
2022-09-03T00:08:53.006Z,11.14
2022-09-03T00:09:52.939Z,11.14
2022-09-03T00:10:52.932Z,11.14
2022-09-03T00:11:53.030Z,11.13
2022-09-03T00:12:52.890Z,11.12
2022-09-03T00:13:53.939Z,11.10
2022-09-03T00:14:52.897Z,11.08
2022-09-03T00:15:52.936Z,11.07
2022-09-03T00:16:52.851Z,11.07
2022-09-03T00:17:53.919Z,11.08
2022-09-03T00:18:52.839Z,11.09
2022-09-03T00:19:52.809Z,11.11
2022-09-03T00:20:52.832Z,11.13
2022-09-03T00:21:52.820Z,11.16
2022-09-03T00:22:52.789Z,11.19
2022-09-03T00:23:52.923Z,11.22
2022-09-03T00:24:52.781Z,11.23
2022-09-03T00:25:52.749Z,11.24
2022-09-03T00:26:52.699Z,11.23
2022-09-03T00:27:53.860Z,11.23
2022-09-03T00:28:52.680Z,11.22
2022-09-03T00:29:53.711Z,11.21
2022-09-03T00:30:52.736Z,11.19
2022-09-03T00:31:52.692Z,11.16
2022-09-03T00:32:52.673Z,11.14
2022-09-03T00:33:52.701Z,11.13
2022-09-03T00:34:52.609Z,11.13
2022-09-03T00:35:53.641Z,11.11
2022-09-03T00:36:52.571Z,11.10
2022-09-03T00:37:52.664Z,11.11
2022-09-03T00:38:52.539Z,11.12
2022-09-03T00:39:53.683Z,11.14
2022-09-03T00:40:52.591Z,11.15
2022-09-03T00:41:53.599Z,11.16
2022-09-03T00:42:52.489Z,11.16
2022-09-03T00:43:52.640Z,11.16
2022-09-03T00:44:52.490Z,11.15
2022-09-03T00:45:52.491Z,11.15
2022-09-03T00:46:52.522Z,11.15
2022-09-03T00:47:52.507Z,11.16
2022-09-03T00:48:52.400Z,11.16
2022-09-03T00:49:52.455Z,11.16
2022-09-03T00:50:52.398Z,11.18
2022-09-03T00:51:52.429Z,11.19
2022-09-03T00:52:52.422Z,11.19
2022-09-03T00:53:52.439Z,11.20
2022-09-03T00:54:52.324Z,11.20
2022-09-03T00:55:53.381Z,11.21
2022-09-03T00:56:52.339Z,11.21
2022-09-03T00:57:54.369Z,11.22
2022-09-03T00:58:52.330Z,11.21
2022-09-03T00:59:52.293Z,11.21
2022-09-03T01:00:52.240Z,11.21
2022-09-03T01:01:53.461Z,11.20
2022-09-03T01:02:52.325Z,11.22
2022-09-03T01:03:53.236Z,11.24
2022-09-03T01:04:52.308Z,11.25
2022-09-03T01:05:52.223Z,11.24
2022-09-03T01:06:52.160Z,11.23
2022-09-03T01:07:53.261Z,11.22
2022-09-03T01:08:52.163Z,11.20
2022-09-03T01:09:52.149Z,11.20
2022-09-03T01:10:52.180Z,11.22
2022-09-03T01:11:52.169Z,11.26
2022-09-03T01:12:52.080Z,11.28
2022-09-03T01:13:52.289Z,11.27
2022-09-03T01:14:52.088Z,11.26
2022-09-03T01:15:52.158Z,11.24
2022-09-03T01:16:52.109Z,11.24
2022-09-03T01:17:52.106Z,11.23
2022-09-03T01:18:51.999Z,11.22
2022-09-03T01:19:52.047Z,11.20
2022-09-03T01:20:51.993Z,11.18
2022-09-03T01:21:52.082Z,11.16
2022-09-03T01:22:51.946Z,11.13
2022-09-03T01:23:52.970Z,11.12
2022-09-03T01:24:51.921Z,11.11
2022-09-03T01:25:52.039Z,11.10
2022-09-03T01:26:51.965Z,11.08
2022-09-03T01:27:51.910Z,11.08
2022-09-03T01:28:51.859Z,11.08
2022-09-03T01:29:52.909Z,11.09
2022-09-03T01:30:51.917Z,11.10
2022-09-03T01:31:52.029Z,11.09
2022-09-03T01:32:51.849Z,11.06
2022-09-03T01:33:51.869Z,11.04
2022-09-03T01:34:51.838Z,11.03
2022-09-03T01:35:52.849Z,11.02
2022-09-03T01:36:51.760Z,11.01
2022-09-03T01:37:51.850Z,11.00
2022-09-03T01:38:51.767Z,10.99
2022-09-03T01:39:51.840Z,10.97
2022-09-03T01:40:51.771Z,10.94
2022-09-03T01:41:51.770Z,10.94
2022-09-03T01:42:51.671Z,10.93
2022-09-03T01:43:51.820Z,10.94
2022-09-03T01:44:53.085Z,10.95
2022-09-03T01:45:52.383Z,10.95
2022-09-03T01:46:51.686Z,10.93
2022-09-03T01:47:51.709Z,10.91
2022-09-03T01:48:51.600Z,10.90
2022-09-03T01:49:52.652Z,10.89
2022-09-03T01:50:51.569Z,10.90
2022-09-03T01:51:51.725Z,10.90
2022-09-03T01:52:51.599Z,10.90
2022-09-03T01:53:52.589Z,10.89
2022-09-03T01:54:51.567Z,10.88
2022-09-03T01:55:51.560Z,10.87
2022-09-03T01:56:51.489Z,10.87
2022-09-03T01:57:51.690Z,10.85
2022-09-03T01:58:51.510Z,10.84
2022-09-03T01:59:51.490Z,10.84
2022-09-03T02:00:51.531Z,10.83
2022-09-03T02:01:51.592Z,10.81
2022-09-03T02:02:51.714Z,10.79
2022-09-03T02:03:51.539Z,10.79
2022-09-03T02:04:51.401Z,10.79
2022-09-03T02:05:51.431Z,10.78
2022-09-03T02:06:51.349Z,10.78
2022-09-03T02:07:51.447Z,10.76
2022-09-03T02:08:51.329Z,10.74
2022-09-03T02:09:51.567Z,10.73
2022-09-03T02:10:51.314Z,10.72
2022-09-03T02:11:51.369Z,10.71
2022-09-03T02:12:51.276Z,10.70
2022-09-03T02:13:51.322Z,10.69
2022-09-03T02:14:51.270Z,10.68
2022-09-03T02:15:51.417Z,10.68
2022-09-03T02:16:51.219Z,10.68
2022-09-03T02:17:52.229Z,10.66
2022-09-03T02:18:51.190Z,10.66
2022-09-03T02:19:51.282Z,10.64
2022-09-03T02:20:51.204Z,10.63
2022-09-03T02:21:51.214Z,10.61
2022-09-03T02:22:51.141Z,10.60
2022-09-03T02:23:51.163Z,10.60
2022-09-03T02:24:51.112Z,10.61
2022-09-03T02:25:51.211Z,10.62
2022-09-03T02:26:51.099Z,10.62
2022-09-03T02:27:51.119Z,10.62
2022-09-03T02:28:51.060Z,10.64
2022-09-03T02:29:51.161Z,10.65
2022-09-03T02:30:51.120Z,10.65
2022-09-03T02:31:51.197Z,10.66
2022-09-03T02:32:51.080Z,10.65
2022-09-03T02:33:51.020Z,10.65
2022-09-03T02:34:50.975Z,10.65
2022-09-03T02:35:51.054Z,10.65
2022-09-03T02:36:50.949Z,10.64
2022-09-03T02:37:51.059Z,10.64
2022-09-03T02:38:50.980Z,10.66
2022-09-03T02:39:52.069Z,10.67
2022-09-03T02:40:50.916Z,10.68
2022-09-03T02:41:50.971Z,10.68
2022-09-03T02:42:50.871Z,10.69
2022-09-03T02:43:50.892Z,10.70
2022-09-03T02:44:50.919Z,10.73
2022-09-03T02:45:50.935Z,10.75
2022-09-03T02:46:50.889Z,10.76
2022-09-03T02:47:50.949Z,10.77
2022-09-03T02:48:50.810Z,10.77
2022-09-03T02:49:50.880Z,10.76
2022-09-03T02:50:50.830Z,10.75
2022-09-03T02:51:50.847Z,10.74
2022-09-03T02:52:50.749Z,10.71
2022-09-03T02:53:50.956Z,10.70
2022-09-03T02:54:50.740Z,10.70
2022-09-03T02:55:50.821Z,10.71
2022-09-03T02:56:50.730Z,10.71
2022-09-03T02:58:11.779Z,10.71
2022-09-03T02:58:50.659Z,10.72
2022-09-03T02:59:50.829Z,10.73
2022-09-03T03:00:50.718Z,10.73
2022-09-03T03:01:51.758Z,10.73
2022-09-03T03:02:50.700Z,10.74
2022-09-03T03:03:50.622Z,10.73
2022-09-03T03:04:50.580Z,10.73
2022-09-03T03:05:51.660Z,10.72
2022-09-03T03:06:50.629Z,10.71
2022-09-03T03:07:50.653Z,10.70
2022-09-03T03:08:50.585Z,10.69
2022-09-03T03:09:51.590Z,10.69
2022-09-03T03:10:50.500Z,10.67
2022-09-03T03:11:50.697Z,10.67
2022-09-03T03:12:50.571Z,10.67
2022-09-03T03:13:50.489Z,10.66
2022-09-03T03:14:50.447Z,10.65
2022-09-03T03:15:50.611Z,10.65
2022-09-03T03:16:50.481Z,10.64
2022-09-03T03:17:50.426Z,10.62
2022-09-03T03:18:50.438Z,10.61
2022-09-03T03:19:50.432Z,10.60
2022-09-03T03:20:50.359Z,10.59
2022-09-03T03:21:50.458Z,10.57
2022-09-03T03:22:50.352Z,10.55
2022-09-03T03:23:50.361Z,10.54
2022-09-03T03:24:50.389Z,10.54
2022-09-03T03:25:50.377Z,10.53
2022-09-03T03:26:50.286Z,10.54
2022-09-03T03:27:51.316Z,10.56
2022-09-03T03:28:50.259Z,10.57
2022-09-03T03:29:50.308Z,10.60
2022-09-03T03:30:50.391Z,10.61
2022-09-03T03:31:50.317Z,10.61
2022-09-03T03:32:50.207Z,10.59
2022-09-03T03:33:50.328Z,10.60
2022-09-03T03:34:50.180Z,10.60
2022-09-03T03:35:52.237Z,10.59
2022-09-03T03:36:50.229Z,10.58
2022-09-03T03:37:50.158Z,10.57
2022-09-03T03:38:50.118Z,10.59
2022-09-03T03:39:50.208Z,10.60
2022-09-03T03:40:50.099Z,10.65
2022-09-03T03:41:51.108Z,10.72
2022-09-03T03:42:50.118Z,10.80
2022-09-03T03:43:50.090Z,10.88
2022-09-03T03:44:50.040Z,10.93
2022-09-03T03:45:51.232Z,10.98
2022-09-03T03:46:50.019Z,11.02
2022-09-03T03:47:50.070Z,11.05
2022-09-03T03:48:50.007Z,11.09
2022-09-03T03:49:50.087Z,11.12
2022-09-03T03:50:50.041Z,11.14
2022-09-03T03:51:50.048Z,11.18
2022-09-03T03:52:49.941Z,11.22
2022-09-03T03:53:50.988Z,11.23
2022-09-03T03:54:49.930Z,11.23
2022-09-03T03:55:50.097Z,11.26
2022-09-03T03:56:55.587Z,11.28
2022-09-03T03:57:50.869Z,11.28
2022-09-03T03:58:49.898Z,11.29
2022-09-03T03:59:49.906Z,11.30
2022-09-03T04:00:50.012Z,11.29
2022-09-03T04:01:49.872Z,11.26
2022-09-03T04:02:49.875Z,11.23
2022-09-03T04:03:49.798Z,11.20
2022-09-03T04:04:50.872Z,11.20
2022-09-03T04:05:49.781Z,11.19
2022-09-03T04:06:50.878Z,11.17
2022-09-03T04:07:49.739Z,11.15
2022-09-03T04:08:49.795Z,11.13
2022-09-03T04:09:49.710Z,11.11
2022-09-03T04:10:50.820Z,11.09
2022-09-03T04:11:49.680Z,11.07
2022-09-03T04:12:49.751Z,11.07
2022-09-03T04:13:49.687Z,11.07
2022-09-03T04:14:49.770Z,11.06
2022-09-03T04:15:49.629Z,11.05
2022-09-03T04:16:49.767Z,11.05
2022-09-03T04:17:49.629Z,11.06
2022-09-03T04:18:49.688Z,11.05
2022-09-03T04:19:49.577Z,11.05
2022-09-03T04:20:49.649Z,11.04
2022-09-03T04:21:49.547Z,11.04
2022-09-03T04:22:52.061Z,11.02
2022-09-03T04:23:49.593Z,11.02
2022-09-03T04:24:49.577Z,11.01
2022-09-03T04:25:49.520Z,11.03
2022-09-03T04:26:49.619Z,11.03
2022-09-03T04:27:49.459Z,11.04
2022-09-03T04:28:50.588Z,11.05
2022-09-03T04:29:49.508Z,11.05
2022-09-03T04:30:49.530Z,11.05
2022-09-03T04:31:49.449Z,11.05
2022-09-03T04:32:49.482Z,11.05
2022-09-03T04:33:49.388Z,11.05
2022-09-03T04:34:50.468Z,11.04
2022-09-03T04:35:49.397Z,11.03
2022-09-03T04:36:52.825Z,11.03
2022-09-03T04:37:49.479Z,11.02
2022-09-03T04:38:49.376Z,11.00
2022-09-03T04:39:49.359Z,10.99
2022-09-03T04:40:49.439Z,10.97
2022-09-03T04:41:49.315Z,10.95
2022-09-03T04:42:49.299Z,10.93
2022-09-03T04:43:51.242Z,10.91
2022-09-03T04:44:49.309Z,10.89
2022-09-03T04:45:49.261Z,10.88
2022-09-03T04:46:49.379Z,10.86
2022-09-03T04:47:49.219Z,10.86
2022-09-03T04:48:49.238Z,10.85
2022-09-03T04:49:49.239Z,10.84
2022-09-03T04:50:49.259Z,10.84
2022-09-03T04:51:49.147Z,10.86
2022-09-03T04:52:51.335Z,10.88
2022-09-03T04:53:49.178Z,10.92
2022-09-03T04:54:49.169Z,11.00
2022-09-03T04:55:49.188Z,11.07
2022-09-03T04:56:50.279Z,11.16
2022-09-03T04:57:49.069Z,11.20
2022-09-03T04:58:51.076Z,11.25
2022-09-03T04:59:49.048Z,11.29
2022-09-03T05:00:49.186Z,11.34
2022-09-03T05:01:49.071Z,11.38
2022-09-03T05:02:51.159Z,11.41
2022-09-03T05:03:48.979Z,11.42
2022-09-03T05:04:49.151Z,11.42
2022-09-03T05:05:52.397Z,11.43
2022-09-03T05:06:48.959Z,11.46
2022-09-03T05:07:48.949Z,11.48
2022-09-03T05:08:48.973Z,11.52
2022-09-03T05:09:48.938Z,11.56
2022-09-03T05:10:49.015Z,11.60
2022-09-03T05:11:48.897Z,11.65
2022-09-03T05:12:49.960Z,11.72
2022-09-03T05:13:48.850Z,11.79
2022-09-03T05:14:48.918Z,11.86
2022-09-03T05:15:48.857Z,11.92
2022-09-03T05:16:52.758Z,11.97
2022-09-03T05:17:48.837Z,11.99
2022-09-03T05:18:48.841Z,12.03
2022-09-03T05:19:48.778Z,12.09
2022-09-03T05:20:48.857Z,12.13
2022-09-03T05:21:48.758Z,12.16
2022-09-03T05:22:48.896Z,12.16
2022-09-03T05:23:48.747Z,12.17
2022-09-03T05:24:48.785Z,12.18
2022-09-03T05:25:48.747Z,12.19
2022-09-03T05:26:49.788Z,12.20
2022-09-03T05:27:48.658Z,12.26
2022-09-03T05:28:48.725Z,12.32
2022-09-03T05:29:48.640Z,12.39
2022-09-03T05:30:48.719Z,12.46
2022-09-03T05:31:48.701Z,12.52
2022-09-03T05:32:48.698Z,12.60
2022-09-03T05:33:48.579Z,12.70
2022-09-03T05:34:49.674Z,12.79
2022-09-03T05:35:48.568Z,12.87
2022-09-03T05:36:48.558Z,12.94
2022-09-03T05:37:48.571Z,13.00
2022-09-03T05:38:53.858Z,13.05
2022-09-03T05:39:48.558Z,13.11
2022-09-03T05:40:48.719Z,13.16
2022-09-03T05:41:48.489Z,13.21
2022-09-03T05:42:48.499Z,13.25
2022-09-03T05:43:48.440Z,13.28
2022-09-03T05:44:48.579Z,13.30
2022-09-03T05:45:48.432Z,13.35
2022-09-03T05:46:48.499Z,13.37
2022-09-03T05:47:48.451Z,13.40
2022-09-03T05:48:48.449Z,13.44
2022-09-03T05:49:48.359Z,13.50
2022-09-03T05:50:48.518Z,13.57
2022-09-03T05:51:48.330Z,13.63
2022-09-03T05:52:48.371Z,13.69
2022-09-03T05:53:48.426Z,13.73
2022-09-03T05:54:48.387Z,13.80
2022-09-03T05:55:48.279Z,13.85
2022-09-03T05:56:49.411Z,13.90
2022-09-03T05:57:48.250Z,13.94
2022-09-03T05:58:48.308Z,13.95
2022-09-03T05:59:48.290Z,13.99
2022-09-03T06:00:48.328Z,14.02
2022-09-03T06:01:50.936Z,14.07
2022-09-03T06:02:48.386Z,14.11
2022-09-03T06:03:48.275Z,14.16
2022-09-03T06:04:48.167Z,14.21
2022-09-03T06:05:48.310Z,14.27
2022-09-03T06:06:48.150Z,14.31
2022-09-03T06:07:48.242Z,14.35
2022-09-03T06:08:48.159Z,14.40
2022-09-03T06:09:48.189Z,14.44
2022-09-03T06:10:48.079Z,14.49
2022-09-03T06:12:09.097Z,14.53
2022-09-03T06:12:48.069Z,14.57
2022-09-03T06:13:48.189Z,14.60
2022-09-03T06:14:48.050Z,14.64
2022-09-03T06:15:48.129Z,14.66
2022-09-03T06:16:48.031Z,14.70
2022-09-03T06:17:48.047Z,14.73
2022-09-03T06:18:47.972Z,14.77
2022-09-03T06:19:49.030Z,14.82
2022-09-03T06:20:48.012Z,14.87
2022-09-03T06:21:47.974Z,14.91
2022-09-03T06:22:47.911Z,14.96
2022-09-03T06:23:48.039Z,15.00
2022-09-03T06:24:47.891Z,15.04
2022-09-03T06:25:49.029Z,15.07
2022-09-03T06:26:47.886Z,15.11
2022-09-03T06:27:48.057Z,15.15
2022-09-03T06:28:47.838Z,15.21
2022-09-03T06:29:48.041Z,15.26
2022-09-03T06:30:47.821Z,15.31
2022-09-03T06:31:51.182Z,15.38
2022-09-03T06:32:47.841Z,15.43
2022-09-03T06:33:49.900Z,15.48
2022-09-03T06:34:47.751Z,15.50
2022-09-03T06:35:48.862Z,15.53
2022-09-03T06:36:47.759Z,15.56
2022-09-03T06:37:47.895Z,15.60
2022-09-03T06:38:47.711Z,15.66
2022-09-03T06:39:48.826Z,15.69
2022-09-03T06:40:47.672Z,15.73
2022-09-03T06:41:48.762Z,15.76
2022-09-03T06:42:47.684Z,15.80
2022-09-03T06:43:47.811Z,15.83
2022-09-03T06:44:47.662Z,15.85
2022-09-03T06:45:47.756Z,15.87
2022-09-03T06:46:47.592Z,15.87
2022-09-03T06:47:47.851Z,15.88
2022-09-03T06:48:47.602Z,15.89
2022-09-03T06:49:47.841Z,15.92
2022-09-03T06:50:47.599Z,15.96
2022-09-03T06:51:47.576Z,16.00
2022-09-03T06:52:47.522Z,16.05
2022-09-03T06:53:47.571Z,16.08
2022-09-03T06:54:47.579Z,16.09
2022-09-03T06:55:47.482Z,16.11
2022-09-03T06:57:57.624Z,15.68
2022-09-03T06:58:57.354Z,15.69
2022-09-03T06:59:57.437Z,15.93
2022-09-03T07:00:57.416Z,16.09
2022-09-03T07:01:57.645Z,16.19
2022-09-03T07:02:57.299Z,16.27
2022-09-03T07:03:58.378Z,16.33
2022-09-03T07:04:57.294Z,16.38
2022-09-03T07:05:57.670Z,16.43
2022-09-03T07:06:57.237Z,16.48
2022-09-03T07:08:19.380Z,16.53
2022-09-03T07:08:57.249Z,16.57
2022-09-03T07:09:57.198Z,16.61
2022-09-03T07:11:18.279Z,16.63
2022-09-03T07:11:57.167Z,16.66
2022-09-03T07:12:57.167Z,16.69
2022-09-03T07:13:59.447Z,16.72
2022-09-03T07:14:57.142Z,16.74
2022-09-03T07:15:57.308Z,16.78
2022-09-03T07:16:57.137Z,16.81
2022-09-03T07:17:57.205Z,16.85
2022-09-03T07:18:57.076Z,16.88
2022-09-03T07:19:57.139Z,16.92
2022-09-03T07:20:57.038Z,16.94
2022-09-03T07:21:57.277Z,16.98
2022-09-03T07:22:57.029Z,17.00
2022-09-03T07:23:58.127Z,17.02
2022-09-03T07:24:56.989Z,17.02
2022-09-03T07:25:57.148Z,17.05
2022-09-03T07:26:56.960Z,17.09
2022-09-03T07:27:57.020Z,17.12
2022-09-03T07:28:56.964Z,17.15
2022-09-03T07:29:58.043Z,17.19
2022-09-03T07:30:56.961Z,17.23
2022-09-03T07:31:57.082Z,17.28
2022-09-03T07:32:56.883Z,17.32
2022-09-03T07:33:57.082Z,17.36
2022-09-03T07:34:56.861Z,17.37
2022-09-03T07:35:57.941Z,17.38
2022-09-03T07:36:56.822Z,17.41
2022-09-03T07:37:56.875Z,17.43
2022-09-03T07:38:56.801Z,17.46
2022-09-03T07:39:56.999Z,17.48
2022-09-03T07:40:56.769Z,17.50
2022-09-03T07:41:56.958Z,17.54
2022-09-03T07:42:56.820Z,17.58
2022-09-03T07:43:57.932Z,17.61
2022-09-03T07:44:56.720Z,17.66
2022-09-03T07:45:56.845Z,17.69
2022-09-03T07:46:56.740Z,17.71
2022-09-03T07:47:58.823Z,17.75
2022-09-03T07:48:56.699Z,17.77
2022-09-03T07:49:56.770Z,17.79
2022-09-03T07:50:56.634Z,17.82
2022-09-03T07:51:56.750Z,17.87
2022-09-03T07:52:56.623Z,17.89
2022-09-03T07:53:56.631Z,17.91
2022-09-03T07:54:56.680Z,17.94
2022-09-03T07:55:56.673Z,17.95
2022-09-03T07:56:56.551Z,17.95
2022-09-03T07:57:59.830Z,17.97
2022-09-03T07:58:56.531Z,17.98
2022-09-03T07:59:56.668Z,18.00
2022-09-03T08:00:56.591Z,18.02
2022-09-03T08:01:56.675Z,18.05
2022-09-03T08:02:56.480Z,18.07
2022-09-03T08:03:58.743Z,18.09
2022-09-03T08:04:56.461Z,18.13
2022-09-03T08:05:56.562Z,18.17
2022-09-03T08:06:56.458Z,18.21
2022-09-03T08:07:57.516Z,18.25
2022-09-03T08:08:58.771Z,18.29
2022-09-03T08:09:57.393Z,18.33
2022-09-03T08:10:56.485Z,18.36
2022-09-03T08:11:56.342Z,18.39
2022-09-03T08:12:56.415Z,18.43
2022-09-03T08:13:56.332Z,18.47
2022-09-03T08:14:56.512Z,18.49
2022-09-03T08:15:56.365Z,18.52
2022-09-03T08:16:56.384Z,18.54
2022-09-03T08:18:03.493Z,18.55
2022-09-03T08:18:57.253Z,18.54
2022-09-03T08:19:56.403Z,18.55
2022-09-03T08:20:56.254Z,18.57
2022-09-03T08:21:57.264Z,18.60
2022-09-03T08:22:56.263Z,18.63
2022-09-03T08:23:57.293Z,18.66
2022-09-03T08:24:56.253Z,18.70
2022-09-03T08:25:56.244Z,18.73
2022-09-03T08:26:56.184Z,18.77
2022-09-03T08:27:57.155Z,18.78
2022-09-03T08:28:56.123Z,18.80
2022-09-03T08:29:57.247Z,18.83
2022-09-03T08:30:56.156Z,18.87
2022-09-03T08:31:56.314Z,18.91
2022-09-03T08:32:56.088Z,18.95
2022-09-03T08:33:56.206Z,18.98
2022-09-03T08:34:56.114Z,19.02
2022-09-03T08:35:56.200Z,19.05
2022-09-03T08:36:56.064Z,19.08
2022-09-03T08:37:57.078Z,19.12
2022-09-03T08:38:56.013Z,19.16
2022-09-03T08:39:58.297Z,19.17
2022-09-03T08:40:56.026Z,19.20
2022-09-03T08:41:56.123Z,19.23
2022-09-03T08:42:55.935Z,19.27
2022-09-03T08:43:57.114Z,19.30
2022-09-03T08:44:55.937Z,19.33
2022-09-03T08:45:58.087Z,19.36
2022-09-03T08:46:55.920Z,19.39
2022-09-03T08:47:55.896Z,19.42
2022-09-03T08:48:55.900Z,19.45
2022-09-03T08:49:55.957Z,19.47
2022-09-03T08:50:55.824Z,19.48
2022-09-03T08:51:55.988Z,19.49
2022-09-03T08:52:55.859Z,19.52
2022-09-03T08:53:55.889Z,19.56
2022-09-03T08:54:55.791Z,19.59
2022-09-03T08:55:56.908Z,19.63
2022-09-03T08:56:55.749Z,19.65
2022-09-03T08:57:55.917Z,19.68
2022-09-03T08:58:55.779Z,19.69
2022-09-03T08:59:55.799Z,19.70
2022-09-03T09:00:55.710Z,19.72
2022-09-03T09:01:55.947Z,19.74
2022-09-03T09:02:55.717Z,19.77
2022-09-03T09:03:55.816Z,19.79
2022-09-03T09:04:55.731Z,19.82
2022-09-03T09:05:55.832Z,19.87
2022-09-03T09:06:55.639Z,19.92
2022-09-03T09:07:55.639Z,19.97
2022-09-03T09:08:55.590Z,20.02
2022-09-03T09:09:55.725Z,20.07
2022-09-03T09:10:55.637Z,20.11
2022-09-03T09:11:55.659Z,20.16
2022-09-03T09:12:55.532Z,20.21
2022-09-03T09:14:16.559Z,20.25
2022-09-03T09:14:55.500Z,20.29
2022-09-03T09:15:56.676Z,20.33
2022-09-03T09:16:55.541Z,20.35
2022-09-03T09:17:56.700Z,20.38
2022-09-03T09:18:55.450Z,20.41
2022-09-03T09:19:55.592Z,20.45
2022-09-03T09:20:55.422Z,20.49
2022-09-03T09:21:55.639Z,20.53
2022-09-03T09:22:55.519Z,20.53
2022-09-03T09:23:55.520Z,20.54
2022-09-03T09:24:55.361Z,20.55
2022-09-03T09:25:56.480Z,20.56
2022-09-03T09:26:55.341Z,20.58
2022-09-03T09:27:55.491Z,20.60
2022-09-03T09:28:55.413Z,20.61
2022-09-03T09:30:16.370Z,20.63
2022-09-03T09:30:55.357Z,20.65
2022-09-03T09:32:16.442Z,20.66
2022-09-03T09:32:55.260Z,20.66
2022-09-03T09:33:55.502Z,20.68
2022-09-03T09:34:55.370Z,20.70
2022-09-03T09:35:56.262Z,20.73
2022-09-03T09:36:55.204Z,20.75
2022-09-03T09:37:55.322Z,20.78
2022-09-03T09:38:55.203Z,20.81
2022-09-03T09:39:55.482Z,20.84
2022-09-03T09:40:55.162Z,20.86
2022-09-03T09:41:55.165Z,20.88
2022-09-03T09:42:55.133Z,20.90
2022-09-03T09:43:55.274Z,20.93
2022-09-03T09:44:55.131Z,20.98
2022-09-03T09:45:55.312Z,21.02
2022-09-03T09:46:55.134Z,21.06
2022-09-03T09:47:55.149Z,21.12
2022-09-03T09:48:55.076Z,21.19
2022-09-03T09:49:56.223Z,21.24
2022-09-03T09:50:55.044Z,21.29
2022-09-03T09:51:55.025Z,21.32
2022-09-03T09:52:58.657Z,21.34
2022-09-03T09:53:54.986Z,21.36
2022-09-03T09:54:55.175Z,21.39
2022-09-03T09:55:54.968Z,21.41
2022-09-03T09:56:55.115Z,21.43
2022-09-03T09:57:54.935Z,21.46
2022-09-03T09:58:54.989Z,21.48
2022-09-03T09:59:54.905Z,21.51
2022-09-03T10:00:55.123Z,21.54
2022-09-03T10:01:55.016Z,21.56
2022-09-03T10:02:56.044Z,21.58
2022-09-03T10:03:54.846Z,21.59
2022-09-03T10:04:54.995Z,21.60
2022-09-03T10:05:54.817Z,21.60
2022-09-03T10:06:55.045Z,21.60
2022-09-03T10:07:54.860Z,21.58
2022-09-03T10:08:54.863Z,21.56
2022-09-03T10:09:54.765Z,21.55
2022-09-03T10:10:54.905Z,21.55
2022-09-03T10:11:54.736Z,21.54
2022-09-03T10:12:55.868Z,21.53
2022-09-03T10:13:54.775Z,21.52
2022-09-03T10:14:54.876Z,21.51
2022-09-03T10:15:54.724Z,21.52
2022-09-03T10:16:54.709Z,21.55
2022-09-03T10:17:54.655Z,21.60
2022-09-03T10:18:54.887Z,21.64
2022-09-03T10:19:54.735Z,21.68
2022-09-03T10:20:54.783Z,21.74
2022-09-03T10:21:54.599Z,21.76
2022-09-03T10:22:56.759Z,21.79
2022-09-03T10:23:54.569Z,21.80
2022-09-03T10:24:54.789Z,21.80
2022-09-03T10:25:54.658Z,21.82
2022-09-03T10:26:54.581Z,21.85
2022-09-03T10:27:54.517Z,21.87
2022-09-03T10:28:56.901Z,21.91
2022-09-03T10:29:54.489Z,21.94
2022-09-03T10:30:54.585Z,21.95
2022-09-03T10:31:54.578Z,21.96
2022-09-03T10:32:54.588Z,21.98
2022-09-03T10:33:54.436Z,22.03
2022-09-03T10:34:54.520Z,22.07
2022-09-03T10:35:54.398Z,22.13
2022-09-03T10:36:54.537Z,22.22
2022-09-03T10:37:54.452Z,22.31
2022-09-03T10:38:54.489Z,22.39
2022-09-03T10:39:54.376Z,22.47
2022-09-03T10:40:54.421Z,22.56
2022-09-03T10:41:54.337Z,22.64
2022-09-03T10:42:54.539Z,22.71
2022-09-03T10:43:54.401Z,22.73
2022-09-03T10:44:54.400Z,22.72
2022-09-03T10:45:54.304Z,22.74
2022-09-03T10:46:54.362Z,22.76
2022-09-03T10:47:54.269Z,22.81
2022-09-03T10:48:54.412Z,22.87
2022-09-03T10:49:54.302Z,22.92
2022-09-03T10:50:54.231Z,22.94
2022-09-03T10:51:54.192Z,22.99
2022-09-03T10:52:54.341Z,23.04
2022-09-03T10:53:54.193Z,23.09
2022-09-03T10:54:54.383Z,23.14
2022-09-03T10:55:54.171Z,23.22
2022-09-03T10:56:55.309Z,23.29
2022-09-03T10:57:54.112Z,23.37
2022-09-03T10:58:54.253Z,23.41
2022-09-03T10:59:54.102Z,23.40
2022-09-03T11:00:54.280Z,23.40
2022-09-03T11:01:54.213Z,23.43
2022-09-03T11:02:55.331Z,23.44
2022-09-03T11:03:54.034Z,23.46
2022-09-03T11:04:54.102Z,23.47
2022-09-03T11:05:54.003Z,23.49
2022-09-03T11:06:56.185Z,23.54
2022-09-03T11:07:53.985Z,23.57
2022-09-03T11:08:56.125Z,23.65
2022-09-03T11:09:53.953Z,23.72
2022-09-03T11:10:54.114Z,23.79
2022-09-03T11:11:53.924Z,23.83
2022-09-03T11:12:53.995Z,23.88
2022-09-03T11:13:53.975Z,23.94
2022-09-03T11:14:54.027Z,23.99
2022-09-03T11:15:53.905Z,24.04
2022-09-03T11:16:54.016Z,24.09
2022-09-03T11:17:53.926Z,24.15
2022-09-03T11:18:54.016Z,24.20
2022-09-03T11:19:53.815Z,24.27
2022-09-03T11:20:56.130Z,24.33
2022-09-03T11:21:53.798Z,24.35
2022-09-03T11:22:53.947Z,24.33
2022-09-03T11:23:55.014Z,24.30
2022-09-03T11:24:53.906Z,24.29
2022-09-03T11:25:53.733Z,24.27
2022-09-03T11:26:53.836Z,24.28
2022-09-03T11:27:56.590Z,24.30
2022-09-03T11:28:53.738Z,24.33
2022-09-03T11:29:53.744Z,24.35
2022-09-03T11:30:53.859Z,24.36
2022-09-03T11:31:53.654Z,24.34
2022-09-03T11:32:55.530Z,24.26
2022-09-03T11:33:53.629Z,24.21
2022-09-03T11:34:54.755Z,24.22
2022-09-03T11:35:53.605Z,24.25
2022-09-03T11:37:15.697Z,24.32
2022-09-03T11:37:53.592Z,24.36
2022-09-03T11:38:53.750Z,24.41
2022-09-03T11:39:53.595Z,24.44
2022-09-03T11:40:53.709Z,24.41
2022-09-03T11:41:53.579Z,24.38
2022-09-03T11:42:53.621Z,24.40
2022-09-03T11:43:53.549Z,24.48
2022-09-03T11:44:53.659Z,24.56
2022-09-03T11:45:53.513Z,24.67
2022-09-03T11:46:53.676Z,24.74
2022-09-03T11:47:53.488Z,24.81
2022-09-03T11:48:54.650Z,24.85
2022-09-03T11:49:53.487Z,24.85
2022-09-03T11:50:53.560Z,24.86
2022-09-03T11:51:53.390Z,24.90
2022-09-03T11:52:53.621Z,24.98
2022-09-03T11:53:53.392Z,25.10
2022-09-03T11:55:14.482Z,25.19
2022-09-03T11:55:53.371Z,25.28
2022-09-03T11:56:53.341Z,25.35
2022-09-03T11:57:55.431Z,25.36
2022-09-03T11:58:53.433Z,25.36
2022-09-03T11:59:53.471Z,25.38
2022-09-03T12:00:53.275Z,25.40
2022-09-03T12:01:53.472Z,25.38
2022-09-03T12:02:58.129Z,25.39
2022-09-03T12:03:54.252Z,25.44
2022-09-03T12:04:53.519Z,25.43
2022-09-03T12:05:53.251Z,25.43
2022-09-03T12:06:53.345Z,25.39
2022-09-03T12:07:53.182Z,25.33
2022-09-03T12:08:53.373Z,25.29
2022-09-03T12:09:53.204Z,25.29
2022-09-03T12:10:55.308Z,25.30
2022-09-03T12:11:53.194Z,25.36
2022-09-03T12:12:53.257Z,25.39
2022-09-03T12:13:53.105Z,25.44
2022-09-03T12:14:53.287Z,25.50
2022-09-03T12:15:53.126Z,25.58
2022-09-03T12:16:53.295Z,25.64
2022-09-03T12:17:53.155Z,25.64
2022-09-03T12:18:53.188Z,25.64
2022-09-03T12:19:53.026Z,25.64
2022-09-03T12:20:53.097Z,25.65
2022-09-03T12:21:53.012Z,25.65
2022-09-03T12:22:55.168Z,25.67
2022-09-03T12:23:55.573Z,25.65
2022-09-03T12:24:53.957Z,25.58
2022-09-03T12:25:54.060Z,25.54
2022-09-03T12:26:52.990Z,25.55
2022-09-03T12:27:53.066Z,25.59
2022-09-03T12:28:52.898Z,25.63
2022-09-03T12:29:53.044Z,25.70
2022-09-03T12:30:52.954Z,25.76
2022-09-03T12:31:52.937Z,25.81
2022-09-03T12:32:52.937Z,25.87
2022-09-03T12:34:13.960Z,25.92
2022-09-03T12:34:52.831Z,25.93
2022-09-03T12:36:13.928Z,25.96
2022-09-03T12:36:52.843Z,25.93
2022-09-03T12:38:10.074Z,25.86
2022-09-03T12:39:11.617Z,25.80
2022-09-03T12:40:09.440Z,25.76
2022-09-03T12:41:53.845Z,25.69
2022-09-03T12:42:52.943Z,25.65
2022-09-03T12:43:52.974Z,25.65
2022-09-03T12:44:52.825Z,25.66
2022-09-03T12:47:34.104Z,25.67
2022-09-03T12:47:53.913Z,25.65
2022-09-03T12:49:53.683Z,25.74
2022-09-03T12:50:56.790Z,25.78
2022-09-03T12:51:56.725Z,25.83
2022-09-03T12:52:53.603Z,25.86
2022-09-03T12:54:13.723Z,25.91
2022-09-03T12:54:52.627Z,25.92
2022-09-03T12:55:52.711Z,25.92
2022-09-03T12:56:52.533Z,25.94